Titusville, Pennsylvania
Current Conditions -  °F | °C
As of 4:15 PM on Tuesday 27 Jan 2015 (Local Time) from KFKL Reporting Station
Overcast Overcast  
Wind Chill: 18°   Ceiling: 3400
Heat Index: 18°   Visibility: 6mi
Dew Point: 10°   Wind: 3mph
Humidity: 73%   Direction: 330°NNW
Pressure: 29.97"   Gusts: NA
Location:  41.63°N, 79.67°W
Report Text: KFKL 272115Z AUTO 33003KT 6SM FEW015 OVC034 M08/M12 A2997 RMK AO1
Loading
Personal Weather Stations






























Interactive Weather Map New forecast layout! Learn more

10-Day Weather Forecast

Advertisements
Track Severe Weather on mobile